sensor_id;sensor_type;location;lat;lon;timestamp;P1;durP1;ratioP1;P2;durP2;ratioP2
42084;SDS011;27746;52.228;20.890;2023-06-24T00:00:02;7.10;;;3.50;;
42084;SDS011;27746;52.228;20.890;2023-06-24T00:02:32;6.68;;;3.85;;
42084;SDS011;27746;52.228;20.890;2023-06-24T00:05:02;7.95;;;4.30;;
42084;SDS011;27746;52.228;20.890;2023-06-24T00:07:30;5.88;;;3.67;;
42084;SDS011;27746;52.228;20.890;2023-06-24T00:09:56;6.78;;;4.00;;
42084;SDS011;27746;52.228;20.890;2023-06-24T00:12:23;6.57;;;4.05;;
42084;SDS011;27746;52.228;20.890;2023-06-24T00:14:51;7.70;;;4.47;;
42084;SDS011;27746;52.228;20.890;2023-06-24T00:17:18;5.57;;;3.65;;
42084;SDS011;27746;52.228;20.890;2023-06-24T00:19:45;6.50;;;3.72;;
42084;SDS011;27746;52.228;20.890;2023-06-24T00:22:13;8.13;;;3.90;;
42084;SDS011;27746;52.228;20.890;2023-06-24T00:24:40;5.63;;;3.65;;
42084;SDS011;27746;52.228;20.890;2023-06-24T00:27:07;7.25;;;3.60;;
42084;SDS011;27746;52.228;20.890;2023-06-24T00:29:34;5.85;;;4.10;;
42084;SDS011;27746;52.228;20.890;2023-06-24T00:32:01;6.43;;;3.47;;
42084;SDS011;27746;52.228;20.890;2023-06-24T00:34:28;6.40;;;3.80;;
42084;SDS011;27746;52.228;20.890;2023-06-24T00:36:55;5.32;;;3.65;;
42084;SDS011;27746;52.228;20.890;2023-06-24T00:39:23;6.90;;;4.03;;
42084;SDS011;27746;52.228;20.890;2023-06-24T00:41:50;10.45;;;4.05;;
42084;SDS011;27746;52.228;20.890;2023-06-24T00:44:17;5.68;;;3.55;;
42084;SDS011;27746;52.228;20.890;2023-06-24T00:46:44;6.50;;;3.92;;
42084;SDS011;27746;52.228;20.890;2023-06-24T00:49:11;9.70;;;3.70;;
42084;SDS011;27746;52.228;20.890;2023-06-24T00:51:38;5.72;;;3.63;;
42084;SDS011;27746;52.228;20.890;2023-06-24T00:54:15;6.38;;;4.32;;
42084;SDS011;27746;52.228;20.890;2023-06-24T00:56:43;5.25;;;3.67;;
42084;SDS011;27746;52.228;20.890;2023-06-24T00:59:12;6.03;;;3.60;;
42084;SDS011;27746;52.228;20.890;2023-06-24T01:01:41;8.10;;;3.80;;
42084;SDS011;27746;52.228;20.890;2023-06-24T01:04:10;5.80;;;3.60;;
42084;SDS011;27746;52.228;20.890;2023-06-24T01:06:37;5.85;;;3.65;;
42084;SDS011;27746;52.228;20.890;2023-06-24T01:09:08;6.55;;;3.83;;
42084;SDS011;27746;52.228;20.890;2023-06-24T01:11:35;9.63;;;4.40;;
42084;SDS011;27746;52.228;20.890;2023-06-24T01:14:04;7.10;;;3.92;;
42084;SDS011;27746;52.228;20.890;2023-06-24T01:16:32;8.02;;;3.63;;
42084;SDS011;27746;52.228;20.890;2023-06-24T01:19:15;8.57;;;3.85;;
42084;SDS011;27746;52.228;20.890;2023-06-24T01:22:00;12.23;;;4.60;;
42084;SDS011;27746;52.228;20.890;2023-06-24T01:24:41;8.05;;;4.20;;
42084;SDS011;27746;52.228;20.890;2023-06-24T01:30:29;7.15;;;3.60;;
42084;SDS011;27746;52.228;20.890;2023-06-24T01:33:24;6.40;;;3.70;;
42084;SDS011;27746;52.228;20.890;2023-06-24T01:35:58;6.90;;;4.22;;
42084;SDS011;27746;52.228;20.890;2023-06-24T01:38:31;7.45;;;4.30;;
42084;SDS011;27746;52.228;20.890;2023-06-24T01:41:03;8.23;;;4.28;;
42084;SDS011;27746;52.228;20.890;2023-06-24T01:43:32;5.68;;;3.72;;
42084;SDS011;27746;52.228;20.890;2023-06-24T01:46:01;5.45;;;3.60;;
42084;SDS011;27746;52.228;20.890;2023-06-24T01:48:32;5.75;;;3.75;;
42084;SDS011;27746;52.228;20.890;2023-06-24T01:51:03;7.28;;;4.25;;
42084;SDS011;27746;52.228;20.890;2023-06-24T01:53:36;7.38;;;3.85;;
42084;SDS011;27746;52.228;20.890;2023-06-24T01:56:10;6.18;;;3.78;;
42084;SDS011;27746;52.228;20.890;2023-06-24T01:58:40;7.35;;;4.05;;
42084;SDS011;27746;52.228;20.890;2023-06-24T02:01:09;6.65;;;3.85;;
42084;SDS011;27746;52.228;20.890;2023-06-24T02:03:38;5.25;;;3.55;;
42084;SDS011;27746;52.228;20.890;2023-06-24T02:06:07;6.88;;;4.22;;
42084;SDS011;27746;52.228;20.890;2023-06-24T02:08:35;7.88;;;4.38;;
42084;SDS011;27746;52.228;20.890;2023-06-24T02:11:06;6.85;;;4.35;;
42084;SDS011;27746;52.228;20.890;2023-06-24T02:13:34;6.05;;;3.65;;
42084;SDS011;27746;52.228;20.890;2023-06-24T02:16:02;6.72;;;4.45;;
42084;SDS011;27746;52.228;20.890;2023-06-24T02:18:32;8.95;;;4.82;;
42084;SDS011;27746;52.228;20.890;2023-06-24T02:21:02;5.82;;;3.80;;
42084;SDS011;27746;52.228;20.890;2023-06-24T02:23:30;6.97;;;4.07;;
42084;SDS011;27746;52.228;20.890;2023-06-24T02:25:59;7.38;;;4.68;;
42084;SDS011;27746;52.228;20.890;2023-06-24T02:28:27;7.28;;;4.22;;
42084;SDS011;27746;52.228;20.890;2023-06-24T02:30:55;10.82;;;4.53;;
42084;SDS011;27746;52.228;20.890;2023-06-24T02:33:24;8.10;;;4.65;;
42084;SDS011;27746;52.228;20.890;2023-06-24T02:35:51;7.63;;;4.55;;
42084;SDS011;27746;52.228;20.890;2023-06-24T02:38:19;6.88;;;4.05;;
42084;SDS011;27746;52.228;20.890;2023-06-24T02:40:46;6.95;;;4.15;;
42084;SDS011;27746;52.228;20.890;2023-06-24T02:43:14;7.57;;;3.85;;
42084;SDS011;27746;52.228;20.890;2023-06-24T02:45:41;7.78;;;4.22;;
42084;SDS011;27746;52.228;20.890;2023-06-24T02:48:08;8.18;;;4.60;;
42084;SDS011;27746;52.228;20.890;2023-06-24T02:50:36;6.38;;;4.05;;
42084;SDS011;27746;52.228;20.890;2023-06-24T02:53:06;13.13;;;5.07;;
42084;SDS011;27746;52.228;20.890;2023-06-24T02:55:34;8.23;;;4.70;;
42084;SDS011;27746;52.228;20.890;2023-06-24T02:58:02;7.05;;;4.57;;
42084;SDS011;27746;52.228;20.890;2023-06-24T03:00:32;8.77;;;4.22;;
42084;SDS011;27746;52.228;20.890;2023-06-24T03:02:59;8.73;;;4.22;;
42084;SDS011;27746;52.228;20.890;2023-06-24T03:05:26;7.63;;;4.63;;
42084;SDS011;27746;52.228;20.890;2023-06-24T03:07:54;8.00;;;4.40;;
42084;SDS011;27746;52.228;20.890;2023-06-24T03:10:22;8.13;;;5.05;;
42084;SDS011;27746;52.228;20.890;2023-06-24T03:12:51;7.55;;;4.60;;
42084;SDS011;27746;52.228;20.890;2023-06-24T03:15:18;7.60;;;4.07;;
42084;SDS011;27746;52.228;20.890;2023-06-24T03:17:46;6.15;;;3.97;;
42084;SDS011;27746;52.228;20.890;2023-06-24T03:20:13;6.28;;;4.47;;
42084;SDS011;27746;52.228;20.890;2023-06-24T03:22:40;7.35;;;4.57;;
42084;SDS011;27746;52.228;20.890;2023-06-24T03:25:07;8.23;;;4.85;;
42084;SDS011;27746;52.228;20.890;2023-06-24T03:27:34;9.98;;;5.00;;
42084;SDS011;27746;52.228;20.890;2023-06-24T03:30:03;6.03;;;4.43;;
42084;SDS011;27746;52.228;20.890;2023-06-24T03:32:31;6.38;;;4.47;;
42084;SDS011;27746;52.228;20.890;2023-06-24T03:35:00;6.57;;;4.40;;
42084;SDS011;27746;52.228;20.890;2023-06-24T03:37:27;7.32;;;4.55;;
42084;SDS011;27746;52.228;20.890;2023-06-24T03:39:53;6.72;;;3.97;;
42084;SDS011;27746;52.228;20.890;2023-06-24T03:42:21;10.32;;;4.40;;
42084;SDS011;27746;52.228;20.890;2023-06-24T03:44:48;8.18;;;4.45;;
42084;SDS011;27746;52.228;20.890;2023-06-24T03:47:17;7.97;;;4.65;;
42084;SDS011;27746;52.228;20.890;2023-06-24T03:49:44;7.75;;;4.40;;
42084;SDS011;27746;52.228;20.890;2023-06-24T03:52:10;7.90;;;4.22;;
42084;SDS011;27746;52.228;20.890;2023-06-24T03:54:37;7.28;;;4.18;;
42084;SDS011;27746;52.228;20.890;2023-06-24T03:57:05;7.95;;;4.35;;
42084;SDS011;27746;52.228;20.890;2023-06-24T03:59:33;7.03;;;4.45;;
42084;SDS011;27746;52.228;20.890;2023-06-24T04:02:00;6.88;;;4.43;;
42084;SDS011;27746;52.228;20.890;2023-06-24T04:04:28;9.20;;;5.30;;
42084;SDS011;27746;52.228;20.890;2023-06-24T04:06:55;7.88;;;4.40;;
42084;SDS011;27746;52.228;20.890;2023-06-24T04:09:21;7.57;;;4.88;;
42084;SDS011;27746;52.228;20.890;2023-06-24T04:11:48;8.20;;;5.57;;
42084;SDS011;27746;52.228;20.890;2023-06-24T04:14:15;6.82;;;4.38;;
42084;SDS011;27746;52.228;20.890;2023-06-24T04:16:42;6.43;;;4.18;;
42084;SDS011;27746;52.228;20.890;2023-06-24T04:19:09;8.07;;;5.13;;
42084;SDS011;27746;52.228;20.890;2023-06-24T04:21:37;9.52;;;4.97;;
42084;SDS011;27746;52.228;20.890;2023-06-24T04:24:04;8.05;;;4.63;;
42084;SDS011;27746;52.228;20.890;2023-06-24T04:26:31;9.75;;;5.07;;
42084;SDS011;27746;52.228;20.890;2023-06-24T04:28:58;6.28;;;4.38;;
42084;SDS011;27746;52.228;20.890;2023-06-24T04:31:25;7.75;;;4.57;;
42084;SDS011;27746;52.228;20.890;2023-06-24T04:33:53;7.20;;;4.03;;
42084;SDS011;27746;52.228;20.890;2023-06-24T04:36:20;7.50;;;4.72;;
42084;SDS011;27746;52.228;20.890;2023-06-24T04:38:48;7.47;;;4.35;;
42084;SDS011;27746;52.228;20.890;2023-06-24T04:41:15;8.35;;;4.47;;
42084;SDS011;27746;52.228;20.890;2023-06-24T04:43:43;8.05;;;4.30;;
42084;SDS011;27746;52.228;20.890;2023-06-24T04:46:10;6.80;;;4.45;;
42084;SDS011;27746;52.228;20.890;2023-06-24T04:48:37;7.18;;;4.68;;
42084;SDS011;27746;52.228;20.890;2023-06-24T04:51:03;7.57;;;4.32;;
42084;SDS011;27746;52.228;20.890;2023-06-24T04:53:30;10.88;;;4.95;;
42084;SDS011;27746;52.228;20.890;2023-06-24T04:56:00;8.15;;;4.43;;
42084;SDS011;27746;52.228;20.890;2023-06-24T04:58:27;7.78;;;4.40;;
42084;SDS011;27746;52.228;20.890;2023-06-24T05:00:53;8.32;;;4.20;;
42084;SDS011;27746;52.228;20.890;2023-06-24T05:03:20;9.73;;;5.00;;
42084;SDS011;27746;52.228;20.890;2023-06-24T05:05:47;8.18;;;4.40;;
42084;SDS011;27746;52.228;20.890;2023-06-24T05:08:14;8.82;;;5.53;;
42084;SDS011;27746;52.228;20.890;2023-06-24T05:10:41;8.85;;;3.92;;
42084;SDS011;27746;52.228;20.890;2023-06-24T05:13:09;7.88;;;4.68;;
42084;SDS011;27746;52.228;20.890;2023-06-24T05:15:36;8.15;;;4.60;;
42084;SDS011;27746;52.228;20.890;2023-06-24T05:18:03;8.15;;;4.88;;
42084;SDS011;27746;52.228;20.890;2023-06-24T05:20:30;9.27;;;4.20;;
42084;SDS011;27746;52.228;20.890;2023-06-24T05:22:57;7.45;;;4.50;;
42084;SDS011;27746;52.228;20.890;2023-06-24T05:25:24;8.70;;;4.38;;
42084;SDS011;27746;52.228;20.890;2023-06-24T05:27:50;10.63;;;4.18;;
42084;SDS011;27746;52.228;20.890;2023-06-24T05:30:19;7.65;;;4.20;;
42084;SDS011;27746;52.228;20.890;2023-06-24T05:32:45;7.90;;;4.32;;
42084;SDS011;27746;52.228;20.890;2023-06-24T05:35:13;7.63;;;4.05;;
42084;SDS011;27746;52.228;20.890;2023-06-24T05:37:40;7.70;;;4.40;;
42084;SDS011;27746;52.228;20.890;2023-06-24T05:40:07;8.98;;;4.45;;
42084;SDS011;27746;52.228;20.890;2023-06-24T05:42:34;7.65;;;3.90;;
42084;SDS011;27746;52.228;20.890;2023-06-24T05:45:01;7.30;;;4.25;;
42084;SDS011;27746;52.228;20.890;2023-06-24T05:47:30;7.32;;;4.35;;
42084;SDS011;27746;52.228;20.890;2023-06-24T05:49:56;7.43;;;3.92;;
42084;SDS011;27746;52.228;20.890;2023-06-24T05:52:23;5.28;;;3.30;;
42084;SDS011;27746;52.228;20.890;2023-06-24T05:54:50;6.95;;;3.58;;
42084;SDS011;27746;52.228;20.890;2023-06-24T05:57:17;7.50;;;4.03;;
42084;SDS011;27746;52.228;20.890;2023-06-24T05:59:44;6.57;;;4.53;;
42084;SDS011;27746;52.228;20.890;2023-06-24T06:02:13;6.68;;;4.03;;
42084;SDS011;27746;52.228;20.890;2023-06-24T06:04:41;7.50;;;3.88;;
42084;SDS011;27746;52.228;20.890;2023-06-24T06:07:08;5.50;;;3.80;;
42084;SDS011;27746;52.228;20.890;2023-06-24T06:09:35;7.50;;;4.07;;
42084;SDS011;27746;52.228;20.890;2023-06-24T06:12:02;9.00;;;3.92;;
42084;SDS011;27746;52.228;20.890;2023-06-24T06:14:29;5.68;;;3.60;;
42084;SDS011;27746;52.228;20.890;2023-06-24T06:16:56;8.57;;;4.03;;
42084;SDS011;27746;52.228;20.890;2023-06-24T06:19:23;6.60;;;3.85;;
42084;SDS011;27746;52.228;20.890;2023-06-24T06:21:52;9.43;;;3.83;;
42084;SDS011;27746;52.228;20.890;2023-06-24T06:24:19;6.40;;;4.05;;
42084;SDS011;27746;52.228;20.890;2023-06-24T06:26:45;5.95;;;3.50;;
42084;SDS011;27746;52.228;20.890;2023-06-24T06:29:13;6.20;;;3.60;;
42084;SDS011;27746;52.228;20.890;2023-06-24T06:31:40;6.35;;;3.63;;
42084;SDS011;27746;52.228;20.890;2023-06-24T06:34:06;7.22;;;4.22;;
42084;SDS011;27746;52.228;20.890;2023-06-24T06:36:33;9.52;;;4.30;;
42084;SDS011;27746;52.228;20.890;2023-06-24T06:39:02;6.38;;;3.53;;
42084;SDS011;27746;52.228;20.890;2023-06-24T06:41:28;8.10;;;3.90;;
42084;SDS011;27746;52.228;20.890;2023-06-24T06:43:55;7.25;;;4.20;;
42084;SDS011;27746;52.228;20.890;2023-06-24T06:46:22;6.07;;;3.70;;
42084;SDS011;27746;52.228;20.890;2023-06-24T06:48:49;6.82;;;3.97;;
42084;SDS011;27746;52.228;20.890;2023-06-24T06:51:16;5.57;;;3.72;;
42084;SDS011;27746;52.228;20.890;2023-06-24T06:53:45;6.30;;;3.97;;
42084;SDS011;27746;52.228;20.890;2023-06-24T06:56:17;9.68;;;4.03;;
42084;SDS011;27746;52.228;20.890;2023-06-24T06:58:44;8.07;;;4.35;;
42084;SDS011;27746;52.228;20.890;2023-06-24T07:01:11;7.13;;;4.38;;
42084;SDS011;27746;52.228;20.890;2023-06-24T07:03:38;7.30;;;4.35;;
42084;SDS011;27746;52.228;20.890;2023-06-24T07:06:05;5.70;;;3.90;;
42084;SDS011;27746;52.228;20.890;2023-06-24T07:08:33;7.82;;;4.65;;
42084;SDS011;27746;52.228;20.890;2023-06-24T07:11:00;5.60;;;3.85;;
42084;SDS011;27746;52.228;20.890;2023-06-24T07:13:28;5.47;;;4.15;;
42084;SDS011;27746;52.228;20.890;2023-06-24T07:15:55;6.25;;;3.70;;
42084;SDS011;27746;52.228;20.890;2023-06-24T07:18:22;9.10;;;4.03;;
42084;SDS011;27746;52.228;20.890;2023-06-24T07:20:49;6.13;;;3.70;;
42084;SDS011;27746;52.228;20.890;2023-06-24T07:23:16;8.60;;;4.40;;
42084;SDS011;27746;52.228;20.890;2023-06-24T07:25:43;6.05;;;3.83;;
42084;SDS011;27746;52.228;20.890;2023-06-24T07:28:10;6.03;;;3.85;;
42084;SDS011;27746;52.228;20.890;2023-06-24T07:30:38;6.40;;;4.18;;
42084;SDS011;27746;52.228;20.890;2023-06-24T07:33:06;6.03;;;3.75;;
42084;SDS011;27746;52.228;20.890;2023-06-24T07:35:34;7.60;;;4.35;;
42084;SDS011;27746;52.228;20.890;2023-06-24T07:38:00;7.85;;;3.95;;
42084;SDS011;27746;52.228;20.890;2023-06-24T07:40:27;6.63;;;4.25;;
42084;SDS011;27746;52.228;20.890;2023-06-24T07:42:54;7.18;;;3.90;;
42084;SDS011;27746;52.228;20.890;2023-06-24T07:45:21;6.43;;;3.78;;
42084;SDS011;27746;52.228;20.890;2023-06-24T07:47:50;6.25;;;3.72;;
42084;SDS011;27746;52.228;20.890;2023-06-24T07:50:16;6.35;;;3.67;;
42084;SDS011;27746;52.228;20.890;2023-06-24T07:52:43;9.10;;;3.60;;
42084;SDS011;27746;52.228;20.890;2023-06-24T07:55:10;5.63;;;3.50;;
42084;SDS011;27746;52.228;20.890;2023-06-24T07:57:37;7.00;;;3.90;;
42084;SDS011;27746;52.228;20.890;2023-06-24T08:00:06;7.63;;;3.83;;
42084;SDS011;27746;52.228;20.890;2023-06-24T08:02:36;5.13;;;3.42;;
42084;SDS011;27746;52.228;20.890;2023-06-24T08:05:04;8.00;;;4.07;;
42084;SDS011;27746;52.228;20.890;2023-06-24T08:07:32;7.13;;;3.40;;
42084;SDS011;27746;52.228;20.890;2023-06-24T08:09:58;8.15;;;3.78;;
42084;SDS011;27746;52.228;20.890;2023-06-24T08:12:25;5.28;;;3.33;;
42084;SDS011;27746;52.228;20.890;2023-06-24T08:14:52;7.95;;;3.72;;
42084;SDS011;27746;52.228;20.890;2023-06-24T08:17:19;4.85;;;2.85;;
42084;SDS011;27746;52.228;20.890;2023-06-24T08:19:46;5.00;;;2.95;;
42084;SDS011;27746;52.228;20.890;2023-06-24T08:22:14;3.72;;;2.50;;
42084;SDS011;27746;52.228;20.890;2023-06-24T08:24:41;6.75;;;3.28;;
42084;SDS011;27746;52.228;20.890;2023-06-24T08:27:07;3.47;;;2.50;;
42084;SDS011;27746;52.228;20.890;2023-06-24T08:29:34;4.95;;;3.15;;
42084;SDS011;27746;52.228;20.890;2023-06-24T08:32:03;6.95;;;3.95;;
42084;SDS011;27746;52.228;20.890;2023-06-24T08:34:31;4.82;;;3.20;;
42084;SDS011;27746;52.228;20.890;2023-06-24T08:36:58;6.50;;;3.45;;
42084;SDS011;27746;52.228;20.890;2023-06-24T08:39:26;5.93;;;3.15;;
42084;SDS011;27746;52.228;20.890;2023-06-24T08:41:53;4.78;;;2.83;;
42084;SDS011;27746;52.228;20.890;2023-06-24T08:44:20;6.65;;;3.00;;
42084;SDS011;27746;52.228;20.890;2023-06-24T08:46:47;6.78;;;3.05;;
42084;SDS011;27746;52.228;20.890;2023-06-24T08:49:15;4.85;;;3.08;;
42084;SDS011;27746;52.228;20.890;2023-06-24T08:51:48;6.40;;;2.90;;
42084;SDS011;27746;52.228;20.890;2023-06-24T08:54:19;7.97;;;3.83;;
42084;SDS011;27746;52.228;20.890;2023-06-24T08:56:48;7.43;;;3.72;;
42084;SDS011;27746;52.228;20.890;2023-06-24T08:59:16;6.32;;;3.35;;
42084;SDS011;27746;52.228;20.890;2023-06-24T09:01:45;8.98;;;3.25;;
42084;SDS011;27746;52.228;20.890;2023-06-24T09:04:12;5.35;;;2.90;;
42084;SDS011;27746;52.228;20.890;2023-06-24T09:06:39;4.57;;;3.10;;
42084;SDS011;27746;52.228;20.890;2023-06-24T09:09:16;7.05;;;3.53;;
42084;SDS011;27746;52.228;20.890;2023-06-24T09:14:21;5.65;;;3.22;;
42084;SDS011;27746;52.228;20.890;2023-06-24T09:16:51;6.70;;;3.10;;
42084;SDS011;27746;52.228;20.890;2023-06-24T09:19:20;9.83;;;3.67;;
42084;SDS011;27746;52.228;20.890;2023-06-24T09:21:47;5.05;;;3.33;;
42084;SDS011;27746;52.228;20.890;2023-06-24T09:24:14;6.22;;;4.00;;
42084;SDS011;27746;52.228;20.890;2023-06-24T09:26:42;6.68;;;3.42;;
42084;SDS011;27746;52.228;20.890;2023-06-24T09:29:11;5.60;;;3.65;;
42084;SDS011;27746;52.228;20.890;2023-06-24T09:31:45;5.90;;;3.60;;
42084;SDS011;27746;52.228;20.890;2023-06-24T09:34:13;5.53;;;3.30;;
42084;SDS011;27746;52.228;20.890;2023-06-24T09:36:41;6.22;;;3.58;;
42084;SDS011;27746;52.228;20.890;2023-06-24T09:39:09;5.78;;;3.80;;
42084;SDS011;27746;52.228;20.890;2023-06-24T09:41:39;6.72;;;2.95;;
42084;SDS011;27746;52.228;20.890;2023-06-24T09:44:08;7.38;;;3.97;;
42084;SDS011;27746;52.228;20.890;2023-06-24T09:46:38;7.47;;;3.55;;
42084;SDS011;27746;52.228;20.890;2023-06-24T09:49:05;6.38;;;3.45;;
42084;SDS011;27746;52.228;20.890;2023-06-24T09:51:32;7.38;;;2.85;;
42084;SDS011;27746;52.228;20.890;2023-06-24T09:54:01;7.45;;;3.78;;
42084;SDS011;27746;52.228;20.890;2023-06-24T09:56:30;6.18;;;3.25;;
42084;SDS011;27746;52.228;20.890;2023-06-24T09:58:58;6.38;;;3.50;;
42084;SDS011;27746;52.228;20.890;2023-06-24T10:01:26;5.45;;;3.03;;
42084;SDS011;27746;52.228;20.890;2023-06-24T10:03:54;8.57;;;3.20;;
42084;SDS011;27746;52.228;20.890;2023-06-24T10:06:20;6.45;;;3.47;;
42084;SDS011;27746;52.228;20.890;2023-06-24T10:08:47;5.88;;;2.72;;
42084;SDS011;27746;52.228;20.890;2023-06-24T10:11:15;9.30;;;3.63;;
42084;SDS011;27746;52.228;20.890;2023-06-24T10:13:42;5.68;;;3.38;;
42084;SDS011;27746;52.228;20.890;2023-06-24T10:16:09;6.32;;;3.28;;
42084;SDS011;27746;52.228;20.890;2023-06-24T10:18:38;6.38;;;3.50;;
42084;SDS011;27746;52.228;20.890;2023-06-24T10:21:06;4.97;;;3.05;;
42084;SDS011;27746;52.228;20.890;2023-06-24T10:23:38;5.28;;;3.50;;
42084;SDS011;27746;52.228;20.890;2023-06-24T10:31:50;7.28;;;3.30;;
42084;SDS011;27746;52.228;20.890;2023-06-24T11:03:33;6.80;;;3.47;;
42084;SDS011;27746;52.228;20.890;2023-06-24T11:06:07;13.27;;;7.63;;
42084;SDS011;27746;52.228;20.890;2023-06-24T11:08:42;11.38;;;4.97;;
42084;SDS011;27746;52.228;20.890;2023-06-24T11:11:10;7.13;;;4.22;;
42084;SDS011;27746;52.228;20.890;2023-06-24T11:13:47;6.40;;;3.90;;
42084;SDS011;27746;52.228;20.890;2023-06-24T11:16:14;6.53;;;3.30;;
42084;SDS011;27746;52.228;20.890;2023-06-24T11:18:48;5.78;;;3.70;;
42084;SDS011;27746;52.228;20.890;2023-06-24T11:21:15;8.60;;;4.18;;
42084;SDS011;27746;52.228;20.890;2023-06-24T11:23:42;6.07;;;3.45;;
42084;SDS011;27746;52.228;20.890;2023-06-24T11:26:09;10.63;;;4.75;;
42084;SDS011;27746;52.228;20.890;2023-06-24T11:28:37;9.13;;;4.70;;
42084;SDS011;27746;52.228;20.890;2023-06-24T11:31:06;7.47;;;3.92;;
42084;SDS011;27746;52.228;20.890;2023-06-24T11:33:33;7.30;;;3.60;;
42084;SDS011;27746;52.228;20.890;2023-06-24T11:36:02;5.47;;;3.58;;
42084;SDS011;27746;52.228;20.890;2023-06-24T11:38:35;6.07;;;4.07;;
42084;SDS011;27746;52.228;20.890;2023-06-24T11:41:02;7.05;;;4.18;;
42084;SDS011;27746;52.228;20.890;2023-06-24T11:43:29;5.93;;;4.03;;
42084;SDS011;27746;52.228;20.890;2023-06-24T11:45:56;8.45;;;4.00;;
42084;SDS011;27746;52.228;20.890;2023-06-24T11:48:27;8.70;;;4.35;;
42084;SDS011;27746;52.228;20.890;2023-06-24T11:50:54;5.13;;;3.75;;
42084;SDS011;27746;52.228;20.890;2023-06-24T11:53:24;7.15;;;3.97;;
42084;SDS011;27746;52.228;20.890;2023-06-24T11:55:55;6.53;;;3.90;;
42084;SDS011;27746;52.228;20.890;2023-06-24T11:58:23;6.80;;;4.25;;
42084;SDS011;27746;52.228;20.890;2023-06-24T12:00:49;7.85;;;4.78;;
42084;SDS011;27746;52.228;20.890;2023-06-24T12:03:22;8.05;;;4.30;;
42084;SDS011;27746;52.228;20.890;2023-06-24T12:05:50;6.82;;;4.18;;
42084;SDS011;27746;52.228;20.890;2023-06-24T12:08:17;6.30;;;3.85;;
42084;SDS011;27746;52.228;20.890;2023-06-24T12:10:45;10.48;;;4.30;;
42084;SDS011;27746;52.228;20.890;2023-06-24T12:13:12;6.00;;;3.75;;
42084;SDS011;27746;52.228;20.890;2023-06-24T12:15:39;7.32;;;3.67;;
42084;SDS011;27746;52.228;20.890;2023-06-24T12:18:06;7.60;;;3.88;;
42084;SDS011;27746;52.228;20.890;2023-06-24T12:20:34;6.28;;;3.90;;
42084;SDS011;27746;52.228;20.890;2023-06-24T12:23:01;6.60;;;4.07;;
42084;SDS011;27746;52.228;20.890;2023-06-24T12:25:28;9.57;;;3.80;;
42084;SDS011;27746;52.228;20.890;2023-06-24T12:27:57;8.23;;;4.38;;
42084;SDS011;27746;52.228;20.890;2023-06-24T12:30:24;7.43;;;3.97;;
42084;SDS011;27746;52.228;20.890;2023-06-24T12:32:51;6.15;;;3.20;;
42084;SDS011;27746;52.228;20.890;2023-06-24T12:35:18;7.25;;;3.80;;
42084;SDS011;27746;52.228;20.890;2023-06-24T12:37:46;5.72;;;4.35;;
42084;SDS011;27746;52.228;20.890;2023-06-24T12:40:13;6.22;;;4.07;;
42084;SDS011;27746;52.228;20.890;2023-06-24T12:42:41;6.15;;;4.20;;
42084;SDS011;27746;52.228;20.890;2023-06-24T12:45:10;6.03;;;4.00;;
42084;SDS011;27746;52.228;20.890;2023-06-24T12:47:36;9.00;;;4.07;;
42084;SDS011;27746;52.228;20.890;2023-06-24T12:50:04;6.80;;;4.20;;
42084;SDS011;27746;52.228;20.890;2023-06-24T12:52:33;7.03;;;4.78;;
42084;SDS011;27746;52.228;20.890;2023-06-24T12:55:00;9.43;;;5.78;;
42084;SDS011;27746;52.228;20.890;2023-06-24T12:57:28;9.52;;;4.60;;
42084;SDS011;27746;52.228;20.890;2023-06-24T12:59:55;9.10;;;3.50;;
42084;SDS011;27746;52.228;20.890;2023-06-24T13:02:24;6.40;;;3.83;;
42084;SDS011;27746;52.228;20.890;2023-06-24T13:04:51;5.38;;;3.70;;
42084;SDS011;27746;52.228;20.890;2023-06-24T13:07:18;5.65;;;3.92;;
42084;SDS011;27746;52.228;20.890;2023-06-24T13:09:44;5.13;;;3.53;;
42084;SDS011;27746;52.228;20.890;2023-06-24T13:12:11;7.90;;;4.10;;
42084;SDS011;27746;52.228;20.890;2023-06-24T13:14:38;4.22;;;3.38;;
42084;SDS011;27746;52.228;20.890;2023-06-24T13:17:05;4.70;;;2.80;;
42084;SDS011;27746;52.228;20.890;2023-06-24T13:19:35;7.28;;;3.78;;
42084;SDS011;27746;52.228;20.890;2023-06-24T13:22:03;5.28;;;3.08;;
42084;SDS011;27746;52.228;20.890;2023-06-24T13:24:30;4.95;;;3.50;;
42084;SDS011;27746;52.228;20.890;2023-06-24T13:26:57;5.80;;;4.13;;
42084;SDS011;27746;52.228;20.890;2023-06-24T13:29:24;7.25;;;2.90;;
42084;SDS011;27746;52.228;20.890;2023-06-24T13:31:52;3.90;;;2.38;;
42084;SDS011;27746;52.228;20.890;2023-06-24T13:34:19;4.35;;;2.45;;
42084;SDS011;27746;52.228;20.890;2023-06-24T13:36:47;4.68;;;2.75;;
42084;SDS011;27746;52.228;20.890;2023-06-24T13:39:14;3.53;;;2.22;;
42084;SDS011;27746;52.228;20.890;2023-06-24T13:41:42;4.30;;;2.53;;
42084;SDS011;27746;52.228;20.890;2023-06-24T13:44:10;4.30;;;2.45;;
42084;SDS011;27746;52.228;20.890;2023-06-24T13:46:37;10.18;;;4.30;;
42084;SDS011;27746;52.228;20.890;2023-06-24T13:49:04;4.75;;;3.25;;
42084;SDS011;27746;52.228;20.890;2023-06-24T13:51:31;10.05;;;3.97;;
42084;SDS011;27746;52.228;20.890;2023-06-24T13:54:00;5.85;;;2.83;;
42084;SDS011;27746;52.228;20.890;2023-06-24T13:56:27;5.85;;;3.20;;
42084;SDS011;27746;52.228;20.890;2023-06-24T13:58:55;5.70;;;2.92;;
42084;SDS011;27746;52.228;20.890;2023-06-24T14:01:22;4.45;;;2.88;;
42084;SDS011;27746;52.228;20.890;2023-06-24T14:03:50;7.95;;;3.80;;
42084;SDS011;27746;52.228;20.890;2023-06-24T14:06:18;5.85;;;3.03;;
42084;SDS011;27746;52.228;20.890;2023-06-24T14:08:47;7.05;;;3.25;;
42084;SDS011;27746;52.228;20.890;2023-06-24T14:11:16;4.30;;;3.10;;
42084;SDS011;27746;52.228;20.890;2023-06-24T14:13:43;6.70;;;3.08;;
42084;SDS011;27746;52.228;20.890;2023-06-24T14:16:12;8.00;;;6.28;;
42084;SDS011;27746;52.228;20.890;2023-06-24T14:18:43;10.82;;;8.13;;
42084;SDS011;27746;52.228;20.890;2023-06-24T14:21:10;12.18;;;8.98;;
42084;SDS011;27746;52.228;20.890;2023-06-24T14:23:39;12.77;;;10.68;;
42084;SDS011;27746;52.228;20.890;2023-06-24T14:26:09;13.18;;;9.40;;
42084;SDS011;27746;52.228;20.890;2023-06-24T14:28:38;10.43;;;5.72;;
42084;SDS011;27746;52.228;20.890;2023-06-24T14:31:06;11.60;;;4.90;;
42084;SDS011;27746;52.228;20.890;2023-06-24T14:33:35;7.95;;;4.05;;
42084;SDS011;27746;52.228;20.890;2023-06-24T14:36:04;6.55;;;3.55;;
42084;SDS011;27746;52.228;20.890;2023-06-24T14:38:31;6.13;;;4.15;;
42084;SDS011;27746;52.228;20.890;2023-06-24T14:40:58;11.32;;;3.60;;
42084;SDS011;27746;52.228;20.890;2023-06-24T14:43:39;7.00;;;4.32;;
42084;SDS011;27746;52.228;20.890;2023-06-24T14:46:06;6.50;;;3.75;;
42084;SDS011;27746;52.228;20.890;2023-06-24T14:48:33;7.53;;;3.58;;
42084;SDS011;27746;52.228;20.890;2023-06-24T14:51:01;6.63;;;3.88;;
42084;SDS011;27746;52.228;20.890;2023-06-24T14:53:28;8.98;;;4.10;;
42084;SDS011;27746;52.228;20.890;2023-06-24T14:55:55;6.03;;;4.00;;
42084;SDS011;27746;52.228;20.890;2023-06-24T14:58:22;6.50;;;3.72;;
42084;SDS011;27746;52.228;20.890;2023-06-24T15:00:51;7.60;;;3.35;;
42084;SDS011;27746;52.228;20.890;2023-06-24T15:03:22;6.55;;;3.85;;
42084;SDS011;27746;52.228;20.890;2023-06-24T15:05:52;11.23;;;4.40;;
42084;SDS011;27746;52.228;20.890;2023-06-24T15:08:20;6.45;;;3.67;;
42084;SDS011;27746;52.228;20.890;2023-06-24T15:10:47;5.63;;;3.67;;
42084;SDS011;27746;52.228;20.890;2023-06-24T15:13:14;7.03;;;3.78;;
42084;SDS011;27746;52.228;20.890;2023-06-24T15:15:41;5.75;;;3.50;;
42084;SDS011;27746;52.228;20.890;2023-06-24T15:18:10;6.00;;;3.67;;